Time;durP1;ratioP1;P1;durP2;ratioP2;P2;SDS_P1;SDS_P2;PMS_P1;PMS_P2;Temp;Humidity;BMP_temperature;BMP_pressure;BME280_temperature;BME280_humidity;BME280_pressure;Samples;Min_cycle;Max_cycle;Signal;HPM_P1;HPM_P2
2023/05/30 00:01:15;;;;;;;17.40;3.53;;;12.50;99.90;;;;;;5134787;27;20080;-88
2023/05/30 00:03:44;;;;;;;16.52;3.13;;;12.50;99.90;;;;;;5134845;27;20395;-89
2023/05/30 00:06:11;;;;;;;17.77;3.45;;;12.60;99.90;;;;;;5134200;27;20360;-90
2023/05/30 00:08:36;;;;;;;17.65;4.07;;;12.70;99.90;;;;;;5134295;27;20502;-90
2023/05/30 00:11:02;;;;;;;22.48;4.07;;;12.70;99.90;;;;;;5134482;27;20121;-88
2023/05/30 00:13:28;;;;;;;14.95;3.78;;;12.80;99.90;;;;;;5133786;27;20110;-90
2023/05/30 00:15:55;;;;;;;13.52;3.20;;;12.80;99.90;;;;;;5134638;27;20027;-90
2023/05/30 00:18:22;;;;;;;14.23;3.95;;;12.80;99.90;;;;;;5134677;27;20023;-90
2023/05/30 00:20:48;;;;;;;12.30;3.95;;;12.70;99.90;;;;;;5133865;27;20518;-89
2023/05/30 00:23:14;;;;;;;14.52;3.92;;;12.60;99.90;;;;;;5134637;27;20079;-89
2023/05/30 00:25:40;;;;;;;12.80;3.53;;;12.40;99.90;;;;;;5134133;27;20062;-89
2023/05/30 00:28:07;;;;;;;13.32;3.38;;;12.40;99.90;;;;;;5134836;27;20058;-90
2023/05/30 00:30:33;;;;;;;14.43;3.33;;;12.20;99.90;;;;;;5134488;27;20542;-89
2023/05/30 00:32:59;;;;;;;13.15;3.80;;;12.20;99.90;;;;;;5133646;27;20060;-89
2023/05/30 00:35:25;;;;;;;17.65;4.25;;;12.10;99.90;;;;;;5134121;27;20022;-87
2023/05/30 00:37:50;;;;;;;13.82;4.03;;;12.00;99.90;;;;;;5134466;27;20023;-89
2023/05/30 00:40:16;;;;;;;14.88;4.18;;;12.00;99.90;;;;;;5133576;27;20023;-88
2023/05/30 00:42:42;;;;;;;19.42;4.28;;;12.00;99.90;;;;;;5135324;27;20028;-87
2023/05/30 00:45:07;;;;;;;13.15;3.83;;;12.00;99.90;;;;;;5135089;27;20023;-89
2023/05/30 00:47:33;;;;;;;15.60;3.97;;;12.00;99.90;;;;;;5133192;27;20027;-89
2023/05/30 00:49:59;;;;;;;20.73;3.13;;;12.00;99.90;;;;;;5133996;27;20034;-89
2023/05/30 00:52:25;;;;;;;16.13;4.47;;;12.00;99.90;;;;;;5134478;27;20470;-89
2023/05/30 00:54:52;;;;;;;17.50;3.95;;;12.00;99.90;;;;;;5133435;27;20051;-88
2023/05/30 00:57:17;;;;;;;21.65;4.28;;;11.90;99.90;;;;;;5133900;27;20034;-89
2023/05/30 00:59:44;;;;;;;19.95;4.47;;;11.90;99.90;;;;;;5133710;27;20023;-89
2023/05/30 01:02:10;;;;;;;28.45;4.82;;;11.90;99.90;;;;;;5133142;27;20494;-88
2023/05/30 01:04:35;;;;;;;15.60;3.60;;;12.00;99.90;;;;;;5133572;27;20027;-89
2023/05/30 01:07:01;;;;;;;32.10;4.43;;;12.00;99.90;;;;;;5134973;27;20023;-89
2023/05/30 01:09:27;;;;;;;21.73;3.95;;;12.10;99.90;;;;;;5133320;27;20019;-89
2023/05/30 01:11:56;;;;;;;13.02;4.10;;;12.10;99.90;;;;;;5133745;27;20152;-89
2023/05/30 01:14:28;;;;;;;18.67;4.40;;;12.20;99.90;;;;;;5134052;27;20395;-89
2023/05/30 01:17:00;;;;;;;13.93;3.70;;;12.30;99.90;;;;;;5132917;28;20023;-89
2023/05/30 01:19:46;;;;;;;19.15;3.97;;;12.30;99.90;;;;;;5132834;27;20031;-90
2023/05/30 01:22:49;;;;;;;14.07;4.50;;;12.30;99.90;;;;;;5133426;28;20098;-90
2023/05/30 01:25:27;;;;;;;13.60;3.80;;;12.30;99.90;;;;;;5130930;28;20027;-90
2023/05/30 01:28:21;;;;;;;15.30;4.22;;;12.30;99.90;;;;;;5134030;28;20019;-89
2023/05/30 01:30:49;;;;;;;17.77;3.80;;;12.40;99.90;;;;;;5133238;28;20019;-90
2023/05/30 01:33:17;;;;;;;20.63;3.90;;;12.50;99.90;;;;;;5134017;28;20024;-90
2023/05/30 01:35:46;;;;;;;11.25;3.55;;;12.50;99.90;;;;;;5128057;28;20089;-89
2023/05/30 01:38:13;;;;;;;14.13;3.53;;;12.50;99.90;;;;;;5119148;28;20102;-90
2023/05/30 01:40:39;;;;;;;16.73;4.15;;;12.50;99.90;;;;;;5113034;28;20031;-89
2023/05/30 01:43:39;;;;;;;25.33;5.22;;;12.50;99.90;;;;;;5113074;28;20062;-89
2023/05/30 01:46:23;;;;;;;17.00;3.83;;;12.60;99.90;;;;;;5113156;28;20024;-88
2023/05/30 01:49:07;;;;;;;24.77;4.05;;;12.60;99.90;;;;;;5112576;28;20023;-89
2023/05/30 01:52:03;;;;;;;20.15;5.15;;;12.60;99.90;;;;;;5111975;28;20020;-89
2023/05/30 01:54:31;;;;;;;11.07;3.55;;;12.60;99.90;;;;;;5111889;28;20395;-89
2023/05/30 01:57:11;;;;;;;16.40;4.22;;;12.50;99.90;;;;;;5112464;28;20043;-89
2023/05/30 01:59:38;;;;;;;12.25;3.80;;;12.50;99.90;;;;;;5112655;28;20448;-88
2023/05/30 02:02:05;;;;;;;20.92;4.68;;;12.40;99.90;;;;;;5112906;28;20139;-89
2023/05/30 02:04:31;;;;;;;19.60;3.95;;;12.40;99.90;;;;;;5112330;28;20024;-90
2023/05/30 02:06:56;;;;;;;12.88;3.55;;;12.40;99.90;;;;;;5112976;28;20028;-89
2023/05/30 02:09:23;;;;;;;13.68;4.43;;;12.40;99.90;;;;;;5112819;28;20031;-89
2023/05/30 02:11:48;;;;;;;17.33;3.35;;;12.40;99.90;;;;;;5111968;28;20048;-89
2023/05/30 02:14:14;;;;;;;15.25;3.83;;;12.50;99.90;;;;;;5112974;28;20463;-89
2023/05/30 02:16:40;;;;;;;18.02;3.85;;;12.50;99.90;;;;;;5112616;28;20031;-89
2023/05/30 02:19:06;;;;;;;13.95;3.58;;;12.50;99.90;;;;;;5112784;28;20045;-89
2023/05/30 02:21:32;;;;;;;9.57;3.42;;;12.50;99.90;;;;;;5131720;28;20436;-88
2023/05/30 02:23:58;;;;;;;14.00;4.15;;;12.50;99.90;;;;;;5132774;28;20382;-89
2023/05/30 02:26:25;;;;;;;18.25;4.10;;;12.50;99.90;;;;;;5132929;28;20113;-88
2023/05/30 02:28:51;;;;;;;15.60;4.03;;;12.50;99.90;;;;;;5132732;28;20035;-88
2023/05/30 02:31:16;;;;;;;17.30;4.53;;;12.50;99.90;;;;;;5135603;27;20025;-90
2023/05/30 02:33:43;;;;;;;15.68;4.40;;;12.50;99.90;;;;;;5135572;27;20042;-89
2023/05/30 02:36:09;;;;;;;7.88;3.58;;;12.60;99.90;;;;;;5136613;27;20077;-89
2023/05/30 02:38:34;;;;;;;21.00;3.53;;;12.60;99.90;;;;;;5136723;27;20462;-89
2023/05/30 02:41:00;;;;;;;13.30;4.20;;;12.60;99.90;;;;;;5136014;27;20123;-89
2023/05/30 02:43:26;;;;;;;22.05;3.92;;;12.60;99.90;;;;;;5136792;27;20027;-90
2023/05/30 02:45:51;;;;;;;15.68;3.88;;;12.50;99.90;;;;;;5136476;27;20027;-89
2023/05/30 02:48:18;;;;;;;16.95;3.90;;;12.60;99.90;;;;;;5135978;27;20443;-90
2023/05/30 02:50:44;;;;;;;12.77;3.17;;;12.60;99.90;;;;;;5136653;27;20027;-89
2023/05/30 02:53:09;;;;;;;14.93;3.83;;;12.60;99.90;;;;;;5135774;27;20031;-90
2023/05/30 02:55:35;;;;;;;19.33;3.75;;;12.60;99.90;;;;;;5136656;27;20022;-89
2023/05/30 02:58:00;;;;;;;14.80;3.60;;;12.50;99.90;;;;;;5136696;27;20490;-89
2023/05/30 03:00:26;;;;;;;14.63;4.03;;;12.30;99.90;;;;;;5135848;27;20395;-88
2023/05/30 03:02:52;;;;;;;12.90;3.63;;;12.30;99.90;;;;;;5136006;27;20050;-89
2023/05/30 03:05:17;;;;;;;10.80;3.55;;;12.30;99.90;;;;;;5136361;27;20111;-91
2023/05/30 03:07:44;;;;;;;20.23;3.75;;;12.40;99.90;;;;;;5135667;27;20038;-89
2023/05/30 03:10:10;;;;;;;12.05;3.35;;;12.30;99.90;;;;;;5136643;27;20027;-89
2023/05/30 03:12:35;;;;;;;10.10;3.47;;;12.30;99.90;;;;;;5136106;27;20019;-90
2023/05/30 03:15:04;;;;;;;15.68;3.38;;;12.40;99.90;;;;;;5135655;27;20020;-90
2023/05/30 03:17:30;;;;;;;15.93;4.32;;;12.40;99.90;;;;;;5136016;27;20039;-89
2023/05/30 03:19:56;;;;;;;15.13;4.35;;;12.40;99.90;;;;;;5135734;27;20490;-89
2023/05/30 03:22:21;;;;;;;17.42;4.65;;;12.40;99.90;;;;;;5135667;27;20447;-89
2023/05/30 03:24:47;;;;;;;11.75;4.25;;;12.40;99.90;;;;;;5139692;27;20019;-89
2023/05/30 03:27:12;;;;;;;15.85;3.97;;;12.30;99.90;;;;;;5138219;27;20027;-90
2023/05/30 03:29:38;;;;;;;20.40;4.03;;;12.30;99.90;;;;;;5134970;27;20102;-89
2023/05/30 03:32:04;;;;;;;13.93;4.25;;;12.30;99.90;;;;;;5135689;27;20363;-89
2023/05/30 03:34:31;;;;;;;20.27;4.43;;;12.30;99.90;;;;;;5135405;27;20023;-90
2023/05/30 03:36:57;;;;;;;13.10;3.97;;;12.20;99.90;;;;;;5135039;27;20079;-90
2023/05/30 03:39:23;;;;;;;14.15;4.60;;;12.20;99.90;;;;;;5135654;27;20050;-90
2023/05/30 03:41:48;;;;;;;19.95;4.53;;;12.00;99.90;;;;;;5135010;27;20062;-89
2023/05/30 03:44:14;;;;;;;12.43;5.03;;;12.00;99.90;;;;;;5135141;27;20476;-90
2023/05/30 03:46:40;;;;;;;12.10;4.35;;;12.00;99.90;;;;;;5135004;27;20035;-89
2023/05/30 03:49:05;;;;;;;16.80;5.38;;;11.90;99.90;;;;;;5135402;27;20076;-89
2023/05/30 03:51:33;;;;;;;18.73;4.95;;;12.00;99.90;;;;;;5134662;27;20367;-88
2023/05/30 03:53:58;;;;;;;20.00;4.93;;;12.00;99.90;;;;;;5135377;27;20027;-92
2023/05/30 03:56:25;;;;;;;13.23;4.80;;;12.00;99.90;;;;;;5135611;27;20020;-91
2023/05/30 03:58:52;;;;;;;14.27;4.53;;;12.10;99.90;;;;;;5135420;27;20038;-90
2023/05/30 04:01:17;;;;;;;14.52;4.63;;;12.10;99.90;;;;;;5135612;27;20035;-90
2023/05/30 04:03:43;;;;;;;12.20;4.45;;;12.40;99.90;;;;;;5134348;27;20027;-90
2023/05/30 04:06:10;;;;;;;11.35;4.55;;;12.40;99.90;;;;;;5134917;27;20084;-90
2023/05/30 04:08:40;;;;;;;17.13;4.90;;;12.50;99.90;;;;;;5135505;27;20053;-89
2023/05/30 04:11:06;;;;;;;15.20;4.75;;;12.40;99.90;;;;;;5134691;27;20024;-90
2023/05/30 04:13:31;;;;;;;13.55;3.95;;;12.50;99.90;;;;;;5135363;27;20030;-90
2023/05/30 04:15:59;;;;;;;15.63;5.15;;;12.50;99.90;;;;;;5134794;27;20514;-90
2023/05/30 04:18:25;;;;;;;13.30;3.92;;;12.50;99.90;;;;;;5141013;27;20027;-90
2023/05/30 04:20:51;;;;;;;11.20;4.38;;;12.50;99.90;;;;;;5147133;27;20047;-90
2023/05/30 04:23:16;;;;;;;14.90;3.83;;;12.60;99.90;;;;;;5139845;27;20038;-90
2023/05/30 04:25:44;;;;;;;15.30;3.92;;;12.60;99.90;;;;;;5134355;27;20489;-89
2023/05/30 04:28:12;;;;;;;17.95;4.57;;;12.60;99.90;;;;;;5135109;27;20092;-90
2023/05/30 04:30:38;;;;;;;10.98;4.18;;;12.60;99.90;;;;;;5136031;27;20027;-90
2023/05/30 04:33:04;;;;;;;12.75;4.15;;;12.60;99.90;;;;;;5134979;27;20028;-89
2023/05/30 04:35:32;;;;;;;18.20;4.65;;;12.60;99.90;;;;;;5139322;27;20035;-90
2023/05/30 04:37:58;;;;;;;16.58;5.53;;;12.60;99.90;;;;;;5134782;27;20046;-89
2023/05/30 04:40:25;;;;;;;12.18;4.25;;;12.70;99.90;;;;;;5134018;27;20058;-90
2023/05/30 04:42:51;;;;;;;11.75;4.60;;;12.70;99.90;;;;;;5134156;27;20031;-89
2023/05/30 04:45:18;;;;;;;19.05;4.57;;;12.70;99.90;;;;;;5134624;27;20439;-90
2023/05/30 04:47:45;;;;;;;16.50;5.05;;;12.70;99.90;;;;;;5134156;27;20038;-89
2023/05/30 04:50:14;;;;;;;19.23;4.65;;;12.70;99.90;;;;;;5134895;27;20016;-90
2023/05/30 04:52:40;;;;;;;15.52;4.30;;;12.80;99.90;;;;;;5134737;27;20027;-89
2023/05/30 04:55:06;;;;;;;14.73;4.72;;;12.70;99.90;;;;;;5133285;27;20015;-90
2023/05/30 04:57:32;;;;;;;9.27;4.53;;;12.70;99.90;;;;;;5134043;27;20047;-89
2023/05/30 04:59:58;;;;;;;17.88;5.30;;;12.70;99.90;;;;;;5134524;27;20019;-90
2023/05/30 05:02:23;;;;;;;15.00;4.95;;;12.70;99.90;;;;;;5135087;27;20058;-90
2023/05/30 05:04:49;;;;;;;14.23;5.22;;;12.70;99.90;;;;;;5135912;27;20075;-90
2023/05/30 05:07:16;;;;;;;12.20;4.18;;;12.70;99.90;;;;;;5145974;27;20398;-89
2023/05/30 05:09:42;;;;;;;11.05;4.28;;;12.60;99.90;;;;;;5149758;27;20033;-89
2023/05/30 05:12:08;;;;;;;13.32;4.35;;;12.70;99.90;;;;;;5144637;27;20083;-90
2023/05/30 05:14:33;;;;;;;13.10;4.97;;;12.70;99.90;;;;;;5145346;27;20019;-88
2023/05/30 05:16:59;;;;;;;18.10;4.78;;;12.80;99.90;;;;;;5144425;28;20109;-90
2023/05/30 05:19:24;;;;;;;15.73;4.43;;;12.80;99.90;;;;;;5140629;28;20019;-89
2023/05/30 05:21:50;;;;;;;10.65;3.95;;;12.90;99.90;;;;;;5132917;28;20034;-90
2023/05/30 05:24:15;;;;;;;14.65;4.55;;;12.90;99.90;;;;;;5133493;28;20015;-89
2023/05/30 05:26:41;;;;;;;13.63;4.78;;;12.90;99.90;;;;;;5133058;28;20591;-90
2023/05/30 05:29:06;;;;;;;12.55;4.63;;;12.90;99.90;;;;;;5132657;28;20023;-90
2023/05/30 05:31:33;;;;;;;17.75;4.90;;;12.80;99.90;;;;;;5132987;28;20038;-88
2023/05/30 05:33:58;;;;;;;12.23;5.20;;;12.90;99.90;;;;;;5132850;28;20470;-89
2023/05/30 05:36:24;;;;;;;16.60;4.63;;;12.90;99.90;;;;;;5132481;28;20025;-92
2023/05/30 05:38:50;;;;;;;17.35;4.88;;;13.00;99.90;;;;;;5133671;28;20030;-89
2023/05/30 05:41:16;;;;;;;12.10;4.80;;;13.00;99.90;;;;;;5133906;28;20092;-89
2023/05/30 05:43:41;;;;;;;13.23;4.43;;;13.00;99.90;;;;;;5133153;28;20015;-89
2023/05/30 05:46:07;;;;;;;10.23;4.65;;;13.00;99.90;;;;;;5133969;28;20106;-89
2023/05/30 05:48:32;;;;;;;12.65;4.38;;;13.00;99.90;;;;;;5133701;28;20019;-89
2023/05/30 05:50:58;;;;;;;12.20;4.32;;;12.90;99.90;;;;;;5133348;28;20050;-88
2023/05/30 05:53:23;;;;;;;7.93;4.10;;;12.90;99.90;;;;;;5133685;28;20042;-88
2023/05/30 05:55:49;;;;;;;10.60;4.00;;;12.80;99.90;;;;;;5132854;28;20390;-89
2023/05/30 05:58:16;;;;;;;11.20;4.40;;;13.00;99.90;;;;;;5133409;28;20023;-89
2023/05/30 06:00:42;;;;;;;13.40;4.60;;;12.80;99.90;;;;;;5133842;28;20045;-89
2023/05/30 06:03:07;;;;;;;11.02;3.83;;;13.40;99.90;;;;;;5133763;28;20080;-89
2023/05/30 06:05:33;;;;;;;12.27;4.32;;;12.80;99.90;;;;;;5137895;27;20042;-89
2023/05/30 06:07:58;;;;;;;12.02;4.05;;;12.70;99.90;;;;;;5149312;27;20019;-89
2023/05/30 06:10:25;;;;;;;16.15;4.68;;;12.80;99.90;;;;;;5137067;27;20023;-89
2023/05/30 06:12:50;;;;;;;16.23;4.43;;;12.80;99.90;;;;;;5137176;27;20020;-88
2023/05/30 06:15:16;;;;;;;9.65;3.40;;;12.80;99.90;;;;;;5137588;27;20026;-90
2023/05/30 06:17:42;;;;;;;14.95;4.03;;;12.80;99.90;;;;;;5136913;27;20023;-89
2023/05/30 06:20:09;;;;;;;16.27;5.28;;;12.90;99.90;;;;;;5142094;27;20054;-91
2023/05/30 06:22:34;;;;;;;12.85;3.53;;;12.90;99.90;;;;;;5152130;27;20482;-89
2023/05/30 06:25:00;;;;;;;12.07;3.47;;;13.00;99.90;;;;;;5139758;27;20021;-88
2023/05/30 06:27:26;;;;;;;8.98;3.20;;;13.00;99.90;;;;;;5137515;27;20027;-89
2023/05/30 06:29:54;;;;;;;13.32;4.15;;;13.00;99.90;;;;;;5138728;27;20024;-88
2023/05/30 06:32:20;;;;;;;13.82;3.63;;;13.10;99.90;;;;;;5136839;27;20084;-88
2023/05/30 06:34:45;;;;;;;10.27;4.10;;;13.10;99.90;;;;;;5136770;27;20463;-87
2023/05/30 06:37:14;;;;;;;13.93;4.07;;;13.20;99.90;;;;;;5137004;27;20112;-88
2023/05/30 06:39:40;;;;;;;12.82;4.10;;;13.10;99.90;;;;;;5136244;27;20440;-88
2023/05/30 06:42:08;;;;;;;13.30;3.85;;;13.10;99.90;;;;;;5136865;27;20031;-89
2023/05/30 06:44:33;;;;;;;14.43;3.92;;;13.20;99.90;;;;;;5137886;27;20110;-89
2023/05/30 06:46:59;;;;;;;13.70;4.43;;;13.20;99.90;;;;;;5136770;27;20077;-86
2023/05/30 06:49:25;;;;;;;24.50;4.75;;;13.20;99.90;;;;;;5136763;27;20030;-88
2023/05/30 06:51:50;;;;;;;9.95;3.63;;;13.20;99.90;;;;;;5134966;27;20084;-88
2023/05/30 06:54:16;;;;;;;14.27;4.35;;;13.50;99.90;;;;;;5135538;27;20067;-89
2023/05/30 06:56:42;;;;;;;15.55;5.35;;;13.20;99.90;;;;;;5134900;27;20098;-89
2023/05/30 06:59:07;;;;;;;11.77;4.13;;;14.10;99.90;;;;;;5135962;27;20011;-89
2023/05/30 07:01:33;;;;;;;10.80;4.00;;;13.30;99.90;;;;;;5140797;27;20035;-86
2023/05/30 07:03:58;;;;;;;9.80;4.13;;;13.30;99.90;;;;;;5135186;27;20099;-87
2023/05/30 07:06:25;;;;;;;11.05;3.88;;;13.30;99.90;;;;;;5134154;27;20218;-87
2023/05/30 07:08:50;;;;;;;12.30;3.83;;;13.30;99.90;;;;;;5135251;27;20047;-85
2023/05/30 07:11:16;;;;;;;15.50;4.28;;;13.30;99.90;;;;;;5135502;27;20111;-85
2023/05/30 07:13:42;;;;;;;9.75;3.75;;;13.30;99.90;;;;;;5133148;27;20035;-86
2023/05/30 07:16:08;;;;;;;12.70;3.92;;;13.40;99.90;;;;;;5132940;27;20417;-85
2023/05/30 07:18:33;;;;;;;10.52;4.60;;;13.40;99.90;;;;;;5132103;27;20039;-86
2023/05/30 07:20:59;;;;;;;16.10;3.80;;;14.10;99.90;;;;;;5132385;27;20130;-87
2023/05/30 07:23:24;;;;;;;14.32;4.57;;;13.50;99.90;;;;;;5132656;27;20493;-88
2023/05/30 07:25:50;;;;;;;14.48;5.15;;;13.50;99.90;;;;;;5133166;27;20046;-86
2023/05/30 07:28:15;;;;;;;10.50;3.72;;;13.50;99.90;;;;;;5132813;27;20528;-87
2023/05/30 07:30:41;;;;;;;9.65;2.83;;;13.50;99.90;;;;;;5134063;27;20029;-87
2023/05/30 07:33:06;;;;;;;16.75;4.78;;;13.50;99.90;;;;;;5133990;27;20019;-86
2023/05/30 07:35:32;;;;;;;9.52;3.92;;;13.50;99.90;;;;;;5133986;27;20404;-87
2023/05/30 07:37:58;;;;;;;17.75;4.55;;;13.50;99.90;;;;;;5135093;27;20436;-84
2023/05/30 07:40:23;;;;;;;9.65;4.40;;;13.60;99.90;;;;;;5134483;27;20026;-84
2023/05/30 07:42:49;;;;;;;9.32;3.90;;;13.60;99.90;;;;;;5135636;27;20035;-86
2023/05/30 07:45:15;;;;;;;15.52;4.35;;;13.70;99.90;;;;;;5132883;27;20030;-87
2023/05/30 07:47:41;;;;;;;16.58;4.32;;;13.70;99.90;;;;;;5131942;27;20106;-87
2023/05/30 07:50:08;;;;;;;9.88;3.50;;;13.70;99.90;;;;;;5132814;27;20159;-86
2023/05/30 07:52:33;;;;;;;18.17;4.80;;;13.70;99.90;;;;;;5133468;27;20049;-87
2023/05/30 07:54:59;;;;;;;11.18;4.45;;;13.80;99.90;;;;;;5133543;27;20019;-87
2023/05/30 07:57:25;;;;;;;12.68;3.67;;;13.90;99.90;;;;;;5133210;27;20065;-89
2023/05/30 07:59:50;;;;;;;14.70;4.20;;;13.90;99.90;;;;;;5132833;27;20016;-87
2023/05/30 08:02:18;;;;;;;15.13;5.25;;;14.00;99.90;;;;;;5132526;27;20367;-88
2023/05/30 08:04:44;;;;;;;18.42;4.72;;;14.00;99.90;;;;;;5126842;27;20027;-90
2023/05/30 08:07:10;;;;;;;24.02;4.55;;;14.00;99.90;;;;;;5132835;27;20019;-88
2023/05/30 08:09:36;;;;;;;11.35;3.92;;;14.00;99.90;;;;;;5132815;27;20022;-88
2023/05/30 08:12:04;;;;;;;9.07;3.88;;;14.10;99.90;;;;;;5132953;27;20033;-89
2023/05/30 08:14:31;;;;;;;20.33;3.75;;;14.10;99.90;;;;;;5132119;27;20019;-90
2023/05/30 08:16:56;;;;;;;14.82;4.07;;;14.10;99.90;;;;;;5132475;27;20455;-89
2023/05/30 08:19:22;;;;;;;15.43;4.18;;;14.10;99.90;;;;;;5133718;27;20076;-88
2023/05/30 08:21:47;;;;;;;9.63;4.60;;;14.20;99.90;;;;;;5131759;27;20091;-88
2023/05/30 08:24:15;;;;;;;14.75;3.88;;;14.20;99.90;;;;;;5131315;27;20061;-90
2023/05/30 08:26:41;;;;;;;11.85;3.78;;;14.20;99.90;;;;;;5131978;27;20033;-88
2023/05/30 08:29:06;;;;;;;13.55;4.47;;;14.20;99.90;;;;;;5132036;27;20027;-86
2023/05/30 08:31:33;;;;;;;12.23;4.03;;;14.20;99.90;;;;;;5131409;27;20117;-85
2023/05/30 08:34:02;;;;;;;8.80;4.07;;;14.20;99.90;;;;;;5132150;27;20027;-87
2023/05/30 08:36:28;;;;;;;12.30;4.45;;;14.30;99.90;;;;;;5127941;27;20395;-85
2023/05/30 08:38:55;;;;;;;20.70;4.38;;;14.30;99.90;;;;;;5130762;27;20031;-86
2023/05/30 08:41:21;;;;;;;12.35;3.60;;;14.20;99.90;;;;;;5132193;27;20034;-87
2023/05/30 08:43:47;;;;;;;7.43;3.67;;;14.20;99.90;;;;;;5131623;27;20442;-86
2023/05/30 08:46:14;;;;;;;11.57;4.45;;;14.20;99.90;;;;;;5130049;27;20026;-87
2023/05/30 08:48:42;;;;;;;9.30;3.47;;;14.00;99.90;;;;;;5130702;27;20031;-86
2023/05/30 08:51:11;;;;;;;15.18;4.20;;;14.20;99.90;;;;;;5132117;27;20016;-93
2023/05/30 08:53:42;;;;;;;10.77;4.63;;;14.30;99.90;;;;;;5132438;27;20419;-87
2023/05/30 08:56:11;;;;;;;13.85;3.85;;;14.40;99.90;;;;;;5130602;27;20039;-85
2023/05/30 08:58:42;;;;;;;11.73;4.38;;;14.40;99.90;;;;;;5131577;27;20034;-87
2023/05/30 09:01:10;;;;;;;12.63;4.45;;;14.50;99.90;;;;;;5130127;27;20019;-85
2023/05/30 09:03:37;;;;;;;18.70;4.70;;;14.50;99.90;;;;;;5131224;27;20039;-85
2023/05/30 09:06:04;;;;;;;9.15;3.80;;;14.50;99.90;;;;;;5134964;27;20084;-85
2023/05/30 09:08:30;;;;;;;16.35;5.25;;;14.60;99.90;;;;;;5134172;27;20023;-85
2023/05/30 09:10:56;;;;;;;13.20;4.50;;;14.60;99.90;;;;;;5129590;27;20027;-85
2023/05/30 09:13:22;;;;;;;10.60;4.38;;;14.60;99.90;;;;;;5129889;27;20035;-84
2023/05/30 09:15:48;;;;;;;13.25;4.22;;;14.60;99.90;;;;;;5130134;27;20314;-85
2023/05/30 09:18:14;;;;;;;13.88;4.03;;;14.60;99.90;;;;;;5130408;27;20026;-92
2023/05/30 09:20:40;;;;;;;11.18;4.10;;;14.60;99.90;;;;;;5130558;27;20378;-91
2023/05/30 09:23:09;;;;;;;17.52;4.63;;;14.60;99.90;;;;;;5127543;28;20042;-90
2023/05/30 09:25:46;;;;;;;17.05;3.63;;;14.60;99.90;;;;;;5131765;28;20054;-90
2023/05/30 09:28:12;;;;;;;21.95;4.78;;;14.70;99.90;;;;;;5131057;28;20102;-90
2023/05/30 09:31:02;;;;;;;7.68;3.78;;;14.70;99.90;;;;;;5131359;28;20027;-88
2023/05/30 09:33:41;;;;;;;10.73;3.67;;;15.10;99.90;;;;;;5119601;28;20027;-89
2023/05/30 09:36:15;;;;;;;9.38;4.10;;;14.50;99.90;;;;;;5129834;28;20047;-85
2023/05/30 09:38:55;;;;;;;14.55;4.53;;;14.90;99.90;;;;;;5130267;28;20031;-84
2023/05/30 09:41:21;;;;;;;15.07;4.10;;;14.90;99.90;;;;;;5133280;27;20034;-85
2023/05/30 09:43:52;;;;;;;15.63;4.35;;;14.90;99.90;;;;;;5134962;27;20065;-84
2023/05/30 09:46:19;;;;;;;14.57;4.55;;;15.00;99.90;;;;;;5135751;27;20016;-85
2023/05/30 09:48:45;;;;;;;8.45;4.20;;;15.00;99.90;;;;;;5134630;27;20058;-85
2023/05/30 09:51:11;;;;;;;9.60;4.72;;;15.10;99.90;;;;;;5135494;27;20066;-86
2023/05/30 09:53:37;;;;;;;11.88;3.67;;;15.10;99.90;;;;;;5134936;27;20015;-88
2023/05/30 09:56:03;;;;;;;9.90;4.28;;;15.00;99.90;;;;;;5134597;27;20107;-87
2023/05/30 09:58:29;;;;;;;12.68;4.15;;;15.20;99.90;;;;;;5135207;27;20092;-84
2023/05/30 10:00:56;;;;;;;12.93;4.50;;;15.20;99.90;;;;;;5134758;27;20035;-83
2023/05/30 10:03:43;;;;;;;9.90;3.97;;;15.20;99.90;;;;;;5134333;27;20386;-84
2023/05/30 10:06:16;;;;;;;16.10;4.80;;;15.20;99.90;;;;;;5134273;27;20436;-83
2023/05/30 10:08:46;;;;;;;10.82;3.85;;;15.20;99.90;;;;;;5134507;27;20038;-83
2023/05/30 10:11:13;;;;;;;9.70;3.63;;;15.30;99.90;;;;;;5134702;27;20034;-87
2023/05/30 10:13:39;;;;;;;12.60;3.88;;;15.30;99.90;;;;;;5134200;27;20470;-83
2023/05/30 10:16:18;;;;;;;10.10;3.85;;;15.40;99.90;;;;;;5134456;27;20463;-85
2023/05/30 10:18:51;;;;;;;10.20;3.75;;;15.40;99.90;;;;;;5134719;27;20111;-84
2023/05/30 10:21:20;;;;;;;12.30;4.05;;;15.40;99.90;;;;;;5134138;27;20130;-85
2023/05/30 10:23:47;;;;;;;10.05;4.35;;;15.40;99.90;;;;;;5133580;27;20046;-85
2023/05/30 10:26:14;;;;;;;12.07;4.22;;;15.30;99.90;;;;;;5134854;27;20087;-87
2023/05/30 10:28:42;;;;;;;9.30;4.10;;;15.40;99.90;;;;;;5138492;27;20035;-88
2023/05/30 10:31:11;;;;;;;11.25;4.30;;;15.50;99.90;;;;;;5140273;27;20015;-89
2023/05/30 10:33:41;;;;;;;13.52;4.82;;;15.50;99.90;;;;;;5135676;27;20489;-88
2023/05/30 10:36:07;;;;;;;16.48;4.72;;;16.20;99.90;;;;;;5135308;27;20015;-88
2023/05/30 10:38:44;;;;;;;20.00;4.68;;;15.60;99.90;;;;;;5133653;27;20038;-88
2023/05/30 10:41:20;;;;;;;9.95;3.85;;;15.50;99.90;;;;;;5134500;27;20046;-88
2023/05/30 10:44:05;;;;;;;8.65;3.60;;;15.40;99.90;;;;;;5130001;27;20027;-88
2023/05/30 10:46:39;;;;;;;10.10;4.15;;;15.60;99.90;;;;;;5132401;27;20027;-86
2023/05/30 10:49:07;;;;;;;10.25;4.00;;;15.60;99.90;;;;;;5134315;27;20106;-89
2023/05/30 10:51:59;;;;;;;8.40;3.90;;;15.60;99.90;;;;;;5134312;27;20015;-88
2023/05/30 10:54:28;;;;;;;10.13;4.65;;;15.60;99.90;;;;;;5115441;27;20035;-85
2023/05/30 10:56:54;;;;;;;9.18;4.05;;;15.60;99.90;;;;;;5133060;27;20379;-85
2023/05/30 10:59:21;;;;;;;9.60;4.15;;;15.60;99.90;;;;;;5132977;27;20027;-88
2023/05/30 11:02:03;;;;;;;8.05;4.40;;;15.50;99.90;;;;;;5135078;27;20042;-89
2023/05/30 11:04:35;;;;;;;8.68;4.38;;;15.60;99.90;;;;;;5134342;27;20023;-88
2023/05/30 11:07:05;;;;;;;7.95;3.60;;;15.70;99.90;;;;;;5134673;27;20179;-89
2023/05/30 11:09:32;;;;;;;6.97;3.47;;;15.70;99.90;;;;;;5135305;27;20471;-90
2023/05/30 11:11:59;;;;;;;7.55;3.70;;;15.70;99.90;;;;;;5134407;27;20030;-89
2023/05/30 11:14:29;;;;;;;7.97;4.28;;;15.70;99.90;;;;;;5133851;27;20023;-89
2023/05/30 11:16:55;;;;;;;6.57;4.13;;;15.70;99.90;;;;;;5135018;27;20030;-89
2023/05/30 11:19:42;;;;;;;9.70;4.35;;;15.70;99.90;;;;;;5133891;27;20027;-88
2023/05/30 11:22:10;;;;;;;8.82;3.95;;;15.70;99.90;;;;;;5133098;27;20049;-89
2023/05/30 11:24:36;;;;;;;10.52;3.97;;;15.70;99.90;;;;;;5134264;27;20023;-89
2023/05/30 11:27:07;;;;;;;9.52;3.97;;;15.80;99.90;;;;;;5145268;27;20027;-91
2023/05/30 11:29:49;;;;;;;8.95;4.75;;;15.90;99.90;;;;;;5138428;27;20019;-87
2023/05/30 11:32:20;;;;;;;12.43;4.57;;;15.90;99.90;;;;;;5130469;27;20086;-88
2023/05/30 11:34:56;;;;;;;5.45;4.18;;;15.90;99.90;;;;;;5125966;27;20019;-88
2023/05/30 11:37:22;;;;;;;7.10;4.18;;;15.90;99.90;;;;;;5124556;27;20073;-86
2023/05/30 11:39:48;;;;;;;7.47;3.83;;;16.40;99.90;;;;;;5121970;27;20031;-87
2023/05/30 11:42:13;;;;;;;8.45;3.85;;;15.90;99.90;;;;;;5131032;27;20527;-88
2023/05/30 11:44:41;;;;;;;8.75;4.10;;;16.00;99.90;;;;;;5133162;27;20530;-89
2023/05/30 11:47:10;;;;;;;6.22;3.90;;;16.00;99.90;;;;;;5134189;27;20023;-89
2023/05/30 11:49:36;;;;;;;6.63;3.60;;;16.00;99.90;;;;;;5133235;27;20023;-89
2023/05/30 11:52:02;;;;;;;6.22;4.30;;;16.40;99.90;;;;;;5140613;27;20031;-89
2023/05/30 11:54:28;;;;;;;5.93;4.57;;;15.50;99.90;;;;;;5140169;27;20032;-89
2023/05/30 11:56:55;;;;;;;8.30;4.10;;;16.00;99.90;;;;;;5133852;27;20076;-90
2023/05/30 11:59:22;;;;;;;10.98;5.15;;;16.00;99.90;;;;;;5134672;27;20023;-88
2023/05/30 12:01:56;;;;;;;5.30;4.20;;;16.20;99.90;;;;;;5132795;27;20042;-89
2023/05/30 12:04:27;;;;;;;8.48;4.25;;;16.00;99.90;;;;;;5132701;27;20023;-90
2023/05/30 12:06:58;;;;;;;6.53;4.20;;;16.30;99.90;;;;;;5133158;27;20497;-89
2023/05/30 12:09:24;;;;;;;7.50;3.97;;;16.10;99.90;;;;;;5133165;27;20031;-88
2023/05/30 12:11:59;;;;;;;8.40;4.88;;;16.00;99.90;;;;;;5132976;27;20487;-89
2023/05/30 12:14:30;;;;;;;5.85;4.55;;;16.10;99.90;;;;;;5133714;27;20026;-88
2023/05/30 12:16:56;;;;;;;5.47;4.47;;;16.70;99.90;;;;;;5132553;27;20019;-88
2023/05/30 12:19:28;;;;;;;5.60;4.72;;;16.10;99.90;;;;;;5132860;27;20118;-89
2023/05/30 12:21:54;;;;;;;7.32;4.72;;;16.20;99.90;;;;;;5140275;27;20046;-89
2023/05/30 12:24:23;;;;;;;4.20;3.80;;;16.20;99.90;;;;;;5133037;27;20031;-89
2023/05/30 12:26:48;;;;;;;7.22;4.32;;;16.20;99.90;;;;;;5132642;27;20031;-89
2023/05/30 12:29:15;;;;;;;7.35;3.88;;;16.10;99.90;;;;;;5132811;27;20489;-88
2023/05/30 12:31:40;;;;;;;5.10;4.28;;;16.00;99.90;;;;;;5132269;27;20035;-88
2023/05/30 12:34:06;;;;;;;5.45;3.75;;;16.20;99.90;;;;;;5132594;27;20092;-87
2023/05/30 12:36:33;;;;;;;6.50;3.88;;;16.10;99.90;;;;;;5131450;27;20040;-88
2023/05/30 12:38:58;;;;;;;10.23;4.13;;;16.70;99.90;;;;;;5130177;27;20034;-88
2023/05/30 12:41:31;;;;;;;5.10;3.75;;;16.10;99.90;;;;;;5132396;27;20031;-87